KLAN/LAN METAR and TAF weather

Enter ICAO airport designator
Station Type Date Time Source
KLAN METAR 2020/07/10 15:22 UTC NOAA

KLAN 101522Z 17004KT 9SM -RA SCT008 BKN080 BKN100 22/21 A2980 RMK AO2 LTG DSNT SE AND S RAB1457 P0001 T02220211


Station Type Date Time Source
KLAN Decoded METAR 2020/07/10 15:22 UTC NOAA

CAPITAL CITY AIRPORT, MI, United States (KLAN) 42-47N 084-35W 264M
Jul 10, 2020 - 11:22 AM EDT / 2020.07.10 1522 UTC
Wind: from the S (170 degrees) at 5 MPH (4 KT):0
Visibility: 9 mile(s):0
Sky conditions: mostly cloudy
Weather: light rain; Lightning observed
Precipitation last hour: 0.01 inches
Temperature: 72.0 F (22.2 C)
Dew Point: 70.0 F (21.1 C)
Relative Humidity: 93%
Pressure (altimeter): 29.8 in. Hg (1009 hPa)
ob: KLAN 101522Z 17004KT 9SM -RA SCT008 BKN080 BKN100 22/21 A2980 RMK AO2 LTG DSNT SE AND S RAB1457 P0001 T02220211
cycle: 15

Station Type Date Time Source
KLAN TAF 2020/07/10 13:48 UTC NOAA

TAF
AMD KLAN 101246Z 1013/1112 24006KT 1SM TSRA BR BKN025CB
FM101315 22006KT P6SM -SHRA BKN035
FM101900 30007KT P6SM VCTS BKN025CB
FM102200 32010KT P6SM VCSH BKN035

Example: see airport list